sensor_id;sensor_type;location;lat;lon;timestamp;P1;durP1;ratioP1;P2;durP2;ratioP2
51288;SDS011;37372;52.294;5.152;2024-02-14T00:01:22;19.13;;;10.40;;
51288;SDS011;37372;52.294;5.152;2024-02-14T00:03:48;18.48;;;11.10;;
51288;SDS011;37372;52.294;5.152;2024-02-14T00:06:14;16.88;;;10.40;;
51288;SDS011;37372;52.294;5.152;2024-02-14T00:08:39;18.27;;;10.63;;
51288;SDS011;37372;52.294;5.152;2024-02-14T00:11:05;17.27;;;10.43;;
51288;SDS011;37372;52.294;5.152;2024-02-14T00:13:30;19.23;;;10.50;;
51288;SDS011;37372;52.294;5.152;2024-02-14T00:15:59;18.23;;;10.80;;
51288;SDS011;37372;52.294;5.152;2024-02-14T00:18:26;17.70;;;10.75;;
51288;SDS011;37372;52.294;5.152;2024-02-14T00:20:52;16.03;;;9.97;;
51288;SDS011;37372;52.294;5.152;2024-02-14T00:23:18;18.05;;;10.93;;
51288;SDS011;37372;52.294;5.152;2024-02-14T00:25:43;20.23;;;11.37;;
51288;SDS011;37372;52.294;5.152;2024-02-14T00:28:09;20.77;;;10.97;;
51288;SDS011;37372;52.294;5.152;2024-02-14T00:30:34;19.30;;;11.20;;
51288;SDS011;37372;52.294;5.152;2024-02-14T00:33:00;18.67;;;11.47;;
51288;SDS011;37372;52.294;5.152;2024-02-14T00:35:26;22.10;;;11.70;;
51288;SDS011;37372;52.294;5.152;2024-02-14T00:37:51;19.10;;;11.83;;
51288;SDS011;37372;52.294;5.152;2024-02-14T00:40:17;22.88;;;12.07;;
51288;SDS011;37372;52.294;5.152;2024-02-14T00:42:43;20.93;;;12.70;;
51288;SDS011;37372;52.294;5.152;2024-02-14T00:45:09;22.73;;;12.50;;
51288;SDS011;37372;52.294;5.152;2024-02-14T00:47:35;20.77;;;11.93;;
51288;SDS011;37372;52.294;5.152;2024-02-14T00:50:04;22.02;;;12.82;;
51288;SDS011;37372;52.294;5.152;2024-02-14T00:52:33;22.25;;;12.63;;
51288;SDS011;37372;52.294;5.152;2024-02-14T00:54:59;24.85;;;13.57;;
51288;SDS011;37372;52.294;5.152;2024-02-14T00:57:28;25.00;;;12.63;;
51288;SDS011;37372;52.294;5.152;2024-02-14T00:59:54;25.43;;;12.63;;
51288;SDS011;37372;52.294;5.152;2024-02-14T01:02:24;23.55;;;12.63;;
51288;SDS011;37372;52.294;5.152;2024-02-14T01:04:51;22.38;;;12.60;;
51288;SDS011;37372;52.294;5.152;2024-02-14T01:07:16;22.77;;;12.90;;
51288;SDS011;37372;52.294;5.152;2024-02-14T01:09:41;26.33;;;13.13;;
51288;SDS011;37372;52.294;5.152;2024-02-14T01:12:07;23.53;;;13.10;;
51288;SDS011;37372;52.294;5.152;2024-02-14T01:14:34;22.63;;;12.60;;
51288;SDS011;37372;52.294;5.152;2024-02-14T01:16:59;23.65;;;12.50;;
51288;SDS011;37372;52.294;5.152;2024-02-14T01:19:26;24.58;;;12.55;;
51288;SDS011;37372;52.294;5.152;2024-02-14T01:21:54;21.95;;;12.50;;
51288;SDS011;37372;52.294;5.152;2024-02-14T01:24:21;22.40;;;12.50;;
51288;SDS011;37372;52.294;5.152;2024-02-14T01:26:47;22.40;;;12.45;;
51288;SDS011;37372;52.294;5.152;2024-02-14T01:29:13;24.00;;;12.53;;
51288;SDS011;37372;52.294;5.152;2024-02-14T01:31:39;23.98;;;12.50;;
51288;SDS011;37372;52.294;5.152;2024-02-14T01:34:04;23.93;;;12.60;;
51288;SDS011;37372;52.294;5.152;2024-02-14T01:36:34;22.63;;;11.80;;
51288;SDS011;37372;52.294;5.152;2024-02-14T01:38:59;23.23;;;12.57;;
51288;SDS011;37372;52.294;5.152;2024-02-14T01:41:24;26.23;;;13.27;;
51288;SDS011;37372;52.294;5.152;2024-02-14T01:43:52;22.97;;;12.83;;
51288;SDS011;37372;52.294;5.152;2024-02-14T01:46:18;21.00;;;12.05;;
51288;SDS011;37372;52.294;5.152;2024-02-14T01:48:44;21.33;;;12.37;;
51288;SDS011;37372;52.294;5.152;2024-02-14T01:51:11;22.48;;;12.18;;
51288;SDS011;37372;52.294;5.152;2024-02-14T01:53:42;26.15;;;12.63;;
51288;SDS011;37372;52.294;5.152;2024-02-14T01:56:08;25.27;;;12.67;;
51288;SDS011;37372;52.294;5.152;2024-02-14T01:58:37;28.05;;;13.52;;
51288;SDS011;37372;52.294;5.152;2024-02-14T02:01:06;27.95;;;13.98;;
51288;SDS011;37372;52.294;5.152;2024-02-14T02:03:32;27.27;;;13.60;;
51288;SDS011;37372;52.294;5.152;2024-02-14T02:06:00;25.35;;;13.98;;
51288;SDS011;37372;52.294;5.152;2024-02-14T02:08:26;29.13;;;14.40;;
51288;SDS011;37372;52.294;5.152;2024-02-14T02:10:51;25.73;;;14.17;;
51288;SDS011;37372;52.294;5.152;2024-02-14T02:13:17;30.00;;;14.70;;
51288;SDS011;37372;52.294;5.152;2024-02-14T02:15:43;27.07;;;14.13;;
51288;SDS011;37372;52.294;5.152;2024-02-14T02:18:11;25.92;;;13.15;;
51288;SDS011;37372;52.294;5.152;2024-02-14T02:20:38;25.83;;;13.73;;
51288;SDS011;37372;52.294;5.152;2024-02-14T02:23:03;23.80;;;13.65;;
51288;SDS011;37372;52.294;5.152;2024-02-14T02:25:30;26.90;;;13.93;;
51288;SDS011;37372;52.294;5.152;2024-02-14T02:27:56;26.00;;;14.00;;
51288;SDS011;37372;52.294;5.152;2024-02-14T02:30:22;27.58;;;14.02;;
51288;SDS011;37372;52.294;5.152;2024-02-14T02:32:47;28.38;;;13.75;;
51288;SDS011;37372;52.294;5.152;2024-02-14T02:35:13;23.57;;;13.63;;
51288;SDS011;37372;52.294;5.152;2024-02-14T02:37:39;26.83;;;14.38;;
51288;SDS011;37372;52.294;5.152;2024-02-14T02:40:04;23.67;;;12.70;;
51288;SDS011;37372;52.294;5.152;2024-02-14T02:42:30;25.02;;;12.80;;
51288;SDS011;37372;52.294;5.152;2024-02-14T02:44:56;23.97;;;13.33;;
51288;SDS011;37372;52.294;5.152;2024-02-14T02:47:22;23.17;;;12.35;;
51288;SDS011;37372;52.294;5.152;2024-02-14T02:49:47;23.63;;;12.87;;
51288;SDS011;37372;52.294;5.152;2024-02-14T02:52:13;21.93;;;12.20;;
51288;SDS011;37372;52.294;5.152;2024-02-14T02:54:39;21.33;;;12.13;;
51288;SDS011;37372;52.294;5.152;2024-02-14T02:57:07;22.05;;;11.93;;
51288;SDS011;37372;52.294;5.152;2024-02-14T02:59:34;21.88;;;11.98;;
51288;SDS011;37372;52.294;5.152;2024-02-14T03:02:00;21.65;;;11.43;;
51288;SDS011;37372;52.294;5.152;2024-02-14T03:04:27;19.13;;;10.57;;
51288;SDS011;37372;52.294;5.152;2024-02-14T03:06:52;19.88;;;11.38;;
51288;SDS011;37372;52.294;5.152;2024-02-14T03:09:18;20.70;;;11.23;;
51288;SDS011;37372;52.294;5.152;2024-02-14T03:11:47;19.60;;;10.80;;
51288;SDS011;37372;52.294;5.152;2024-02-14T03:14:13;18.65;;;10.27;;
51288;SDS011;37372;52.294;5.152;2024-02-14T03:16:39;17.27;;;9.20;;
51288;SDS011;37372;52.294;5.152;2024-02-14T03:19:04;18.90;;;9.60;;
51288;SDS011;37372;52.294;5.152;2024-02-14T03:21:30;17.93;;;9.73;;
51288;SDS011;37372;52.294;5.152;2024-02-14T03:24:01;19.17;;;9.93;;
51288;SDS011;37372;52.294;5.152;2024-02-14T03:26:28;16.65;;;9.43;;
51288;SDS011;37372;52.294;5.152;2024-02-14T03:28:54;17.48;;;9.85;;
51288;SDS011;37372;52.294;5.152;2024-02-14T03:31:19;17.77;;;10.03;;
51288;SDS011;37372;52.294;5.152;2024-02-14T03:33:46;17.98;;;10.10;;
51288;SDS011;37372;52.294;5.152;2024-02-14T03:36:11;22.53;;;11.57;;
51288;SDS011;37372;52.294;5.152;2024-02-14T03:38:37;25.02;;;12.05;;
51288;SDS011;37372;52.294;5.152;2024-02-14T03:41:06;22.40;;;12.05;;
51288;SDS011;37372;52.294;5.152;2024-02-14T03:43:32;24.50;;;12.63;;
51288;SDS011;37372;52.294;5.152;2024-02-14T03:45:57;24.93;;;12.57;;
51288;SDS011;37372;52.294;5.152;2024-02-14T03:48:24;26.65;;;14.23;;
51288;SDS011;37372;52.294;5.152;2024-02-14T03:50:49;31.67;;;14.52;;
51288;SDS011;37372;52.294;5.152;2024-02-14T03:53:15;30.87;;;14.47;;
51288;SDS011;37372;52.294;5.152;2024-02-14T03:55:40;34.37;;;15.87;;
51288;SDS011;37372;52.294;5.152;2024-02-14T03:58:06;34.85;;;15.48;;
51288;SDS011;37372;52.294;5.152;2024-02-14T04:00:33;37.00;;;16.60;;
51288;SDS011;37372;52.294;5.152;2024-02-14T04:03:00;37.13;;;16.35;;
51288;SDS011;37372;52.294;5.152;2024-02-14T04:05:28;38.20;;;17.42;;
51288;SDS011;37372;52.294;5.152;2024-02-14T04:07:54;38.58;;;16.67;;
51288;SDS011;37372;52.294;5.152;2024-02-14T04:10:20;40.58;;;16.52;;
51288;SDS011;37372;52.294;5.152;2024-02-14T04:12:46;37.47;;;16.73;;
51288;SDS011;37372;52.294;5.152;2024-02-14T04:15:12;42.85;;;16.27;;
51288;SDS011;37372;52.294;5.152;2024-02-14T04:17:38;40.73;;;16.20;;
51288;SDS011;37372;52.294;5.152;2024-02-14T04:20:06;41.05;;;15.00;;
51288;SDS011;37372;52.294;5.152;2024-02-14T04:22:32;40.80;;;15.30;;
51288;SDS011;37372;52.294;5.152;2024-02-14T04:24:58;40.53;;;15.43;;
51288;SDS011;37372;52.294;5.152;2024-02-14T04:27:24;38.27;;;16.07;;
51288;SDS011;37372;52.294;5.152;2024-02-14T04:29:49;35.10;;;15.50;;
51288;SDS011;37372;52.294;5.152;2024-02-14T04:32:15;40.42;;;15.02;;
51288;SDS011;37372;52.294;5.152;2024-02-14T04:34:40;43.33;;;15.30;;
51288;SDS011;37372;52.294;5.152;2024-02-14T04:37:06;39.23;;;13.93;;
51288;SDS011;37372;52.294;5.152;2024-02-14T04:39:37;40.88;;;13.82;;
51288;SDS011;37372;52.294;5.152;2024-02-14T04:42:04;39.92;;;13.30;;
51288;SDS011;37372;52.294;5.152;2024-02-14T04:44:30;44.63;;;12.63;;
51288;SDS011;37372;52.294;5.152;2024-02-14T04:46:57;36.35;;;11.95;;
51288;SDS011;37372;52.294;5.152;2024-02-14T04:49:26;37.47;;;11.13;;
51288;SDS011;37372;52.294;5.152;2024-02-14T04:51:54;35.78;;;11.10;;
51288;SDS011;37372;52.294;5.152;2024-02-14T04:54:20;41.10;;;10.50;;
51288;SDS011;37372;52.294;5.152;2024-02-14T04:56:46;33.55;;;10.38;;
51288;SDS011;37372;52.294;5.152;2024-02-14T04:59:12;43.10;;;11.07;;
51288;SDS011;37372;52.294;5.152;2024-02-14T05:01:37;33.57;;;10.97;;
51288;SDS011;37372;52.294;5.152;2024-02-14T05:04:04;38.77;;;11.63;;
51288;SDS011;37372;52.294;5.152;2024-02-14T05:06:30;42.30;;;11.20;;
51288;SDS011;37372;52.294;5.152;2024-02-14T05:08:55;33.27;;;10.87;;
51288;SDS011;37372;52.294;5.152;2024-02-14T05:11:21;47.77;;;11.60;;
51288;SDS011;37372;52.294;5.152;2024-02-14T05:13:47;29.00;;;10.38;;
51288;SDS011;37372;52.294;5.152;2024-02-14T05:16:13;31.77;;;10.68;;
51288;SDS011;37372;52.294;5.152;2024-02-14T05:18:46;32.20;;;10.60;;
51288;SDS011;37372;52.294;5.152;2024-02-14T05:21:12;38.10;;;11.07;;
51288;SDS011;37372;52.294;5.152;2024-02-14T05:23:37;42.10;;;11.33;;
51288;SDS011;37372;52.294;5.152;2024-02-14T05:26:03;33.65;;;10.43;;
51288;SDS011;37372;52.294;5.152;2024-02-14T05:28:29;38.72;;;10.73;;
51288;SDS011;37372;52.294;5.152;2024-02-14T05:30:56;33.95;;;10.55;;
51288;SDS011;37372;52.294;5.152;2024-02-14T05:33:22;40.67;;;10.80;;
51288;SDS011;37372;52.294;5.152;2024-02-14T05:35:48;40.00;;;11.45;;
51288;SDS011;37372;52.294;5.152;2024-02-14T05:38:15;35.50;;;10.65;;
51288;SDS011;37372;52.294;5.152;2024-02-14T05:40:41;36.90;;;10.95;;
51288;SDS011;37372;52.294;5.152;2024-02-14T05:43:09;35.60;;;11.03;;
51288;SDS011;37372;52.294;5.152;2024-02-14T05:45:35;36.65;;;11.50;;
51288;SDS011;37372;52.294;5.152;2024-02-14T05:48:00;36.78;;;12.00;;
51288;SDS011;37372;52.294;5.152;2024-02-14T05:50:26;35.67;;;12.17;;
51288;SDS011;37372;52.294;5.152;2024-02-14T05:52:51;47.50;;;13.97;;
51288;SDS011;37372;52.294;5.152;2024-02-14T05:55:17;44.47;;;14.20;;
51288;SDS011;37372;52.294;5.152;2024-02-14T05:57:43;36.40;;;14.25;;
51288;SDS011;37372;52.294;5.152;2024-02-14T06:00:09;42.25;;;14.98;;
51288;SDS011;37372;52.294;5.152;2024-02-14T06:02:35;40.15;;;15.32;;
51288;SDS011;37372;52.294;5.152;2024-02-14T06:05:01;49.17;;;16.83;;
51288;SDS011;37372;52.294;5.152;2024-02-14T06:07:29;41.20;;;16.87;;
51288;SDS011;37372;52.294;5.152;2024-02-14T06:09:55;52.33;;;17.10;;
51288;SDS011;37372;52.294;5.152;2024-02-14T06:12:20;50.47;;;17.63;;
51288;SDS011;37372;52.294;5.152;2024-02-14T06:14:49;51.35;;;16.92;;
51288;SDS011;37372;52.294;5.152;2024-02-14T06:17:14;41.92;;;16.25;;
51288;SDS011;37372;52.294;5.152;2024-02-14T06:19:40;41.40;;;15.60;;
51288;SDS011;37372;52.294;5.152;2024-02-14T06:22:06;48.42;;;16.85;;
51288;SDS011;37372;52.294;5.152;2024-02-14T06:24:32;47.73;;;15.97;;
51288;SDS011;37372;52.294;5.152;2024-02-14T06:26:57;48.10;;;16.73;;
51288;SDS011;37372;52.294;5.152;2024-02-14T06:29:22;46.38;;;15.60;;
51288;SDS011;37372;52.294;5.152;2024-02-14T06:31:48;43.50;;;15.07;;
51288;SDS011;37372;52.294;5.152;2024-02-14T06:34:14;45.38;;;15.30;;
51288;SDS011;37372;52.294;5.152;2024-02-14T06:36:41;41.10;;;15.17;;
51288;SDS011;37372;52.294;5.152;2024-02-14T06:39:07;47.38;;;15.00;;
51288;SDS011;37372;52.294;5.152;2024-02-14T06:41:33;40.97;;;14.70;;
51288;SDS011;37372;52.294;5.152;2024-02-14T06:43:59;43.60;;;13.52;;
51288;SDS011;37372;52.294;5.152;2024-02-14T06:46:24;36.43;;;13.87;;
51288;SDS011;37372;52.294;5.152;2024-02-14T06:48:50;39.93;;;13.27;;
51288;SDS011;37372;52.294;5.152;2024-02-14T06:51:15;42.90;;;12.23;;
51288;SDS011;37372;52.294;5.152;2024-02-14T06:53:41;29.83;;;11.77;;
51288;SDS011;37372;52.294;5.152;2024-02-14T06:56:06;34.87;;;12.10;;
51288;SDS011;37372;52.294;5.152;2024-02-14T06:58:32;38.75;;;11.00;;
51288;SDS011;37372;52.294;5.152;2024-02-14T07:00:57;40.10;;;11.10;;
51288;SDS011;37372;52.294;5.152;2024-02-14T07:03:23;39.10;;;12.43;;
51288;SDS011;37372;52.294;5.152;2024-02-14T07:05:48;46.10;;;13.87;;
51288;SDS011;37372;52.294;5.152;2024-02-14T07:08:13;39.43;;;14.10;;
51288;SDS011;37372;52.294;5.152;2024-02-14T07:10:40;40.15;;;15.15;;
51288;SDS011;37372;52.294;5.152;2024-02-14T07:13:06;44.53;;;15.87;;
51288;SDS011;37372;52.294;5.152;2024-02-14T07:15:31;47.08;;;17.10;;
51288;SDS011;37372;52.294;5.152;2024-02-14T07:17:56;48.53;;;17.60;;
51288;SDS011;37372;52.294;5.152;2024-02-14T07:20:23;51.03;;;18.02;;
51288;SDS011;37372;52.294;5.152;2024-02-14T07:22:51;50.35;;;17.80;;
51288;SDS011;37372;52.294;5.152;2024-02-14T07:25:18;49.17;;;16.93;;
51288;SDS011;37372;52.294;5.152;2024-02-14T07:27:44;58.25;;;19.85;;
51288;SDS011;37372;52.294;5.152;2024-02-14T07:30:11;49.85;;;17.25;;
51288;SDS011;37372;52.294;5.152;2024-02-14T07:32:37;50.75;;;18.25;;
51288;SDS011;37372;52.294;5.152;2024-02-14T07:35:03;49.97;;;19.10;;
51288;SDS011;37372;52.294;5.152;2024-02-14T07:37:33;56.58;;;19.25;;
51288;SDS011;37372;52.294;5.152;2024-02-14T07:39:59;59.13;;;19.40;;
51288;SDS011;37372;52.294;5.152;2024-02-14T07:42:25;58.93;;;18.67;;
51288;SDS011;37372;52.294;5.152;2024-02-14T07:44:51;57.90;;;19.90;;
51288;SDS011;37372;52.294;5.152;2024-02-14T07:47:16;59.10;;;20.03;;
51288;SDS011;37372;52.294;5.152;2024-02-14T07:49:41;61.00;;;19.60;;
51288;SDS011;37372;52.294;5.152;2024-02-14T07:52:07;58.77;;;21.13;;
51288;SDS011;37372;52.294;5.152;2024-02-14T07:54:32;61.50;;;21.20;;
51288;SDS011;37372;52.294;5.152;2024-02-14T07:56:58;62.05;;;22.40;;
51288;SDS011;37372;52.294;5.152;2024-02-14T07:59:23;64.43;;;21.00;;
51288;SDS011;37372;52.294;5.152;2024-02-14T08:01:49;63.00;;;20.50;;
51288;SDS011;37372;52.294;5.152;2024-02-14T08:04:18;59.65;;;21.20;;
51288;SDS011;37372;52.294;5.152;2024-02-14T08:06:47;59.10;;;20.90;;
51288;SDS011;37372;52.294;5.152;2024-02-14T08:09:17;59.13;;;20.40;;
51288;SDS011;37372;52.294;5.152;2024-02-14T08:11:43;61.30;;;21.00;;
51288;SDS011;37372;52.294;5.152;2024-02-14T08:14:08;66.30;;;21.07;;
51288;SDS011;37372;52.294;5.152;2024-02-14T08:16:36;56.20;;;21.55;;
51288;SDS011;37372;52.294;5.152;2024-02-14T08:19:05;54.35;;;19.05;;
51288;SDS011;37372;52.294;5.152;2024-02-14T08:21:34;60.23;;;20.90;;
51288;SDS011;37372;52.294;5.152;2024-02-14T08:24:00;59.47;;;20.10;;
51288;SDS011;37372;52.294;5.152;2024-02-14T08:26:26;58.72;;;21.42;;
51288;SDS011;37372;52.294;5.152;2024-02-14T08:28:52;61.17;;;20.77;;
51288;SDS011;37372;52.294;5.152;2024-02-14T08:31:18;64.97;;;20.17;;
51288;SDS011;37372;52.294;5.152;2024-02-14T08:33:45;59.22;;;20.20;;
51288;SDS011;37372;52.294;5.152;2024-02-14T08:36:10;56.13;;;20.40;;
51288;SDS011;37372;52.294;5.152;2024-02-14T08:38:36;51.40;;;19.45;;
51288;SDS011;37372;52.294;5.152;2024-02-14T08:41:02;58.40;;;19.17;;
51288;SDS011;37372;52.294;5.152;2024-02-14T08:43:27;54.72;;;19.40;;
51288;SDS011;37372;52.294;5.152;2024-02-14T08:45:53;49.87;;;18.93;;
51288;SDS011;37372;52.294;5.152;2024-02-14T08:48:20;49.55;;;18.83;;
51288;SDS011;37372;52.294;5.152;2024-02-14T08:50:46;47.70;;;18.40;;
51288;SDS011;37372;52.294;5.152;2024-02-14T08:53:12;45.60;;;17.27;;
51288;SDS011;37372;52.294;5.152;2024-02-14T08:55:39;47.20;;;17.38;;
51288;SDS011;37372;52.294;5.152;2024-02-14T08:58:05;39.08;;;16.23;;
51288;SDS011;37372;52.294;5.152;2024-02-14T09:00:31;40.30;;;16.60;;
51288;SDS011;37372;52.294;5.152;2024-02-14T09:02:56;45.77;;;17.20;;
51288;SDS011;37372;52.294;5.152;2024-02-14T09:05:22;48.07;;;16.40;;
51288;SDS011;37372;52.294;5.152;2024-02-14T09:07:48;40.65;;;16.02;;
51288;SDS011;37372;52.294;5.152;2024-02-14T09:10:13;41.75;;;15.57;;
51288;SDS011;37372;52.294;5.152;2024-02-14T09:12:39;33.27;;;14.47;;
51288;SDS011;37372;52.294;5.152;2024-02-14T09:15:06;35.17;;;15.07;;
51288;SDS011;37372;52.294;5.152;2024-02-14T09:17:33;32.58;;;13.50;;
51288;SDS011;37372;52.294;5.152;2024-02-14T09:19:58;33.37;;;13.57;;
51288;SDS011;37372;52.294;5.152;2024-02-14T09:22:23;32.03;;;13.13;;
51288;SDS011;37372;52.294;5.152;2024-02-14T09:24:49;26.33;;;11.80;;
51288;SDS011;37372;52.294;5.152;2024-02-14T09:27:15;25.95;;;11.27;;
51288;SDS011;37372;52.294;5.152;2024-02-14T09:29:41;23.85;;;10.95;;
51288;SDS011;37372;52.294;5.152;2024-02-14T09:32:07;22.40;;;10.37;;
51288;SDS011;37372;52.294;5.152;2024-02-14T09:34:33;21.27;;;10.55;;
51288;SDS011;37372;52.294;5.152;2024-02-14T09:36:59;20.30;;;9.88;;
51288;SDS011;37372;52.294;5.152;2024-02-14T09:39:29;21.15;;;10.77;;
51288;SDS011;37372;52.294;5.152;2024-02-14T09:41:56;23.85;;;10.05;;
51288;SDS011;37372;52.294;5.152;2024-02-14T09:44:28;18.77;;;9.53;;
51288;SDS011;37372;52.294;5.152;2024-02-14T09:46:54;18.05;;;9.45;;
51288;SDS011;37372;52.294;5.152;2024-02-14T09:49:21;21.10;;;9.00;;
51288;SDS011;37372;52.294;5.152;2024-02-14T09:51:48;16.40;;;8.77;;
51288;SDS011;37372;52.294;5.152;2024-02-14T09:54:15;17.55;;;9.30;;
51288;SDS011;37372;52.294;5.152;2024-02-14T09:56:47;22.93;;;10.10;;
51288;SDS011;37372;52.294;5.152;2024-02-14T09:59:15;20.20;;;9.18;;
51288;SDS011;37372;52.294;5.152;2024-02-14T10:01:43;18.73;;;9.68;;
51288;SDS011;37372;52.294;5.152;2024-02-14T10:04:09;20.38;;;10.45;;
51288;SDS011;37372;52.294;5.152;2024-02-14T10:06:35;22.33;;;11.63;;
51288;SDS011;37372;52.294;5.152;2024-02-14T10:09:02;25.73;;;11.77;;
51288;SDS011;37372;52.294;5.152;2024-02-14T10:11:27;25.98;;;12.82;;
51288;SDS011;37372;52.294;5.152;2024-02-14T10:13:53;27.57;;;13.00;;
51288;SDS011;37372;52.294;5.152;2024-02-14T10:16:22;28.08;;;13.32;;
51288;SDS011;37372;52.294;5.152;2024-02-14T10:18:48;30.95;;;14.07;;
51288;SDS011;37372;52.294;5.152;2024-02-14T10:21:16;33.37;;;14.73;;
51288;SDS011;37372;52.294;5.152;2024-02-14T10:23:44;34.30;;;14.75;;
51288;SDS011;37372;52.294;5.152;2024-02-14T10:26:12;29.65;;;13.32;;
51288;SDS011;37372;52.294;5.152;2024-02-14T10:28:43;29.88;;;13.65;;
51288;SDS011;37372;52.294;5.152;2024-02-14T10:31:20;29.23;;;13.55;;
51288;SDS011;37372;52.294;5.152;2024-02-14T10:33:46;27.43;;;12.93;;
51288;SDS011;37372;52.294;5.152;2024-02-14T10:36:12;24.00;;;12.55;;
51288;SDS011;37372;52.294;5.152;2024-02-14T10:38:39;24.77;;;12.13;;
51288;SDS011;37372;52.294;5.152;2024-02-14T10:41:05;27.23;;;11.88;;
51288;SDS011;37372;52.294;5.152;2024-02-14T10:43:32;19.73;;;10.95;;
51288;SDS011;37372;52.294;5.152;2024-02-14T10:46:03;21.33;;;11.00;;
51288;SDS011;37372;52.294;5.152;2024-02-14T10:48:36;20.70;;;10.63;;
51288;SDS011;37372;52.294;5.152;2024-02-14T10:51:09;18.35;;;9.52;;
51288;SDS011;37372;52.294;5.152;2024-02-14T10:53:40;21.20;;;9.77;;
51288;SDS011;37372;52.294;5.152;2024-02-14T10:56:10;18.93;;;10.10;;
51288;SDS011;37372;52.294;5.152;2024-02-14T10:58:37;17.90;;;10.18;;
51288;SDS011;37372;52.294;5.152;2024-02-14T11:01:05;18.40;;;9.52;;
51288;SDS011;37372;52.294;5.152;2024-02-14T11:03:32;18.20;;;9.52;;
51288;SDS011;37372;52.294;5.152;2024-02-14T11:06:01;21.57;;;9.23;;
51288;SDS011;37372;52.294;5.152;2024-02-14T11:08:28;17.05;;;9.00;;
51288;SDS011;37372;52.294;5.152;2024-02-14T11:10:59;16.17;;;8.15;;
51288;SDS011;37372;52.294;5.152;2024-02-14T11:13:28;16.40;;;8.00;;
51288;SDS011;37372;52.294;5.152;2024-02-14T11:15:59;11.88;;;6.90;;
51288;SDS011;37372;52.294;5.152;2024-02-14T11:18:26;12.33;;;6.90;;
51288;SDS011;37372;52.294;5.152;2024-02-14T11:20:55;12.43;;;6.38;;
51288;SDS011;37372;52.294;5.152;2024-02-14T11:23:23;10.25;;;6.20;;
51288;SDS011;37372;52.294;5.152;2024-02-14T11:25:49;9.85;;;5.82;;
51288;SDS011;37372;52.294;5.152;2024-02-14T11:28:24;9.15;;;5.82;;
51288;SDS011;37372;52.294;5.152;2024-02-14T11:30:51;9.97;;;5.70;;
51288;SDS011;37372;52.294;5.152;2024-02-14T11:33:23;12.40;;;6.07;;
51288;SDS011;37372;52.294;5.152;2024-02-14T11:35:52;11.85;;;6.18;;
51288;SDS011;37372;52.294;5.152;2024-02-14T11:38:21;9.20;;;5.25;;
51288;SDS011;37372;52.294;5.152;2024-02-14T11:40:49;10.00;;;6.00;;
51288;SDS011;37372;52.294;5.152;2024-02-14T11:43:23;10.10;;;6.20;;
51288;SDS011;37372;52.294;5.152;2024-02-14T11:45:49;11.77;;;7.22;;
51288;SDS011;37372;52.294;5.152;2024-02-14T11:48:18;14.13;;;7.45;;
51288;SDS011;37372;52.294;5.152;2024-02-14T11:50:45;14.32;;;8.05;;
51288;SDS011;37372;52.294;5.152;2024-02-14T11:53:12;15.20;;;8.57;;
51288;SDS011;37372;52.294;5.152;2024-02-14T11:55:44;13.35;;;8.23;;
51288;SDS011;37372;52.294;5.152;2024-02-14T11:58:12;12.15;;;7.70;;
51288;SDS011;37372;52.294;5.152;2024-02-14T12:00:41;12.70;;;7.75;;
51288;SDS011;37372;52.294;5.152;2024-02-14T12:03:18;13.52;;;7.45;;
51288;SDS011;37372;52.294;5.152;2024-02-14T12:05:46;14.50;;;7.57;;
51288;SDS011;37372;52.294;5.152;2024-02-14T12:08:12;12.25;;;7.65;;
51288;SDS011;37372;52.294;5.152;2024-02-14T12:10:38;12.32;;;7.85;;
51288;SDS011;37372;52.294;5.152;2024-02-14T12:13:10;11.88;;;7.70;;
51288;SDS011;37372;52.294;5.152;2024-02-14T12:15:38;13.90;;;8.38;;
51288;SDS011;37372;52.294;5.152;2024-02-14T12:18:09;11.80;;;7.17;;
51288;SDS011;37372;52.294;5.152;2024-02-14T12:20:35;12.93;;;7.75;;
51288;SDS011;37372;52.294;5.152;2024-02-14T12:23:02;16.15;;;8.00;;
51288;SDS011;37372;52.294;5.152;2024-02-14T12:25:29;16.40;;;8.02;;
51288;SDS011;37372;52.294;5.152;2024-02-14T12:27:58;13.88;;;7.68;;
51288;SDS011;37372;52.294;5.152;2024-02-14T12:33:15;12.50;;;7.82;;
51288;SDS011;37372;52.294;5.152;2024-02-14T12:35:44;12.73;;;7.80;;
51288;SDS011;37372;52.294;5.152;2024-02-14T12:38:15;12.55;;;7.07;;
51288;SDS011;37372;52.294;5.152;2024-02-14T12:40:42;13.63;;;7.32;;
51288;SDS011;37372;52.294;5.152;2024-02-14T12:43:12;11.30;;;6.97;;
51288;SDS011;37372;52.294;5.152;2024-02-14T12:45:39;9.88;;;6.43;;
51288;SDS011;37372;52.294;5.152;2024-02-14T12:48:10;11.32;;;6.57;;
51288;SDS011;37372;52.294;5.152;2024-02-14T12:51:02;12.65;;;6.97;;
51288;SDS011;37372;52.294;5.152;2024-02-14T12:53:32;11.15;;;6.53;;
51288;SDS011;37372;52.294;5.152;2024-02-14T12:55:58;10.80;;;6.00;;
51288;SDS011;37372;52.294;5.152;2024-02-14T12:58:24;11.93;;;6.57;;
51288;SDS011;37372;52.294;5.152;2024-02-14T13:00:50;10.60;;;6.10;;
51288;SDS011;37372;52.294;5.152;2024-02-14T13:03:15;9.85;;;6.22;;
51288;SDS011;37372;52.294;5.152;2024-02-14T13:05:41;9.87;;;6.13;;
51288;SDS011;37372;52.294;5.152;2024-02-14T13:08:07;10.40;;;6.20;;
51288;SDS011;37372;52.294;5.152;2024-02-14T13:10:36;9.18;;;5.78;;
51288;SDS011;37372;52.294;5.152;2024-02-14T13:13:02;9.57;;;5.60;;
51288;SDS011;37372;52.294;5.152;2024-02-14T13:15:28;7.23;;;5.07;;
51288;SDS011;37372;52.294;5.152;2024-02-14T13:17:53;10.30;;;5.47;;
51288;SDS011;37372;52.294;5.152;2024-02-14T13:20:18;8.73;;;5.13;;
51288;SDS011;37372;52.294;5.152;2024-02-14T13:22:44;7.63;;;5.40;;
51288;SDS011;37372;52.294;5.152;2024-02-14T13:25:11;7.85;;;4.93;;
51288;SDS011;37372;52.294;5.152;2024-02-14T13:27:36;7.67;;;5.17;;
51288;SDS011;37372;52.294;5.152;2024-02-14T13:30:02;7.57;;;5.23;;
51288;SDS011;37372;52.294;5.152;2024-02-14T13:32:27;7.25;;;5.00;;
51288;SDS011;37372;52.294;5.152;2024-02-14T13:34:53;10.53;;;4.80;;
51288;SDS011;37372;52.294;5.152;2024-02-14T13:37:18;7.53;;;5.07;;
51288;SDS011;37372;52.294;5.152;2024-02-14T13:39:44;8.82;;;5.30;;
51288;SDS011;37372;52.294;5.152;2024-02-14T13:42:10;8.57;;;5.63;;
51288;SDS011;37372;52.294;5.152;2024-02-14T13:44:35;7.93;;;5.63;;
51288;SDS011;37372;52.294;5.152;2024-02-14T13:47:01;9.50;;;6.10;;
51288;SDS011;37372;52.294;5.152;2024-02-14T13:49:37;10.10;;;5.85;;
51288;SDS011;37372;52.294;5.152;2024-02-14T13:52:04;10.07;;;6.10;;
51288;SDS011;37372;52.294;5.152;2024-02-14T13:54:29;9.03;;;6.43;;
51288;SDS011;37372;52.294;5.152;2024-02-14T13:56:54;9.80;;;6.40;;
51288;SDS011;37372;52.294;5.152;2024-02-14T13:59:21;11.02;;;7.10;;
51288;SDS011;37372;52.294;5.152;2024-02-14T14:01:46;10.93;;;7.00;;
51288;SDS011;37372;52.294;5.152;2024-02-14T14:04:12;11.25;;;7.15;;
51288;SDS011;37372;52.294;5.152;2024-02-14T14:06:37;12.80;;;7.53;;
51288;SDS011;37372;52.294;5.152;2024-02-14T14:09:04;12.18;;;7.43;;
51288;SDS011;37372;52.294;5.152;2024-02-14T14:11:30;11.68;;;7.60;;
51288;SDS011;37372;52.294;5.152;2024-02-14T14:13:55;13.20;;;7.80;;
51288;SDS011;37372;52.294;5.152;2024-02-14T14:16:25;16.03;;;8.60;;
51288;SDS011;37372;52.294;5.152;2024-02-14T14:18:50;14.30;;;8.65;;
51288;SDS011;37372;52.294;5.152;2024-02-14T14:21:15;16.10;;;9.27;;
51288;SDS011;37372;52.294;5.152;2024-02-14T14:23:41;13.33;;;8.60;;
51288;SDS011;37372;52.294;5.152;2024-02-14T14:26:06;14.23;;;8.73;;